LiveATC.Net - Listen to live air traffic control over the Internet!


ICAO: SVCS  IATA:   Airport: Oscar Machado Zuloaga International Airport
City: Charallave
Country: Venezuela   Continent: South America
SVMI METAR Weather: SVMI 270900Z 00000KT 9999 SCT016 28/21 Q1010
SVCS Flight Activity (FlightAware)
SVCS Approach
Feed Status: DOWN
Last heard on: 2017-04-25 19:35:03 (1 days 15 hours 28 minutes ago)
SVCS Approach Audio Archives
FacilityFrequency
Tuy Approach/Departure119.200

SVCS Tower
Feed Status: DOWN
Last heard on: 2017-04-25 19:35:03 (1 days 15 hours 28 minutes ago)
SVCS Tower Audio Archives
FacilityFrequency
Caracas Tower118.000


NOTICE

Unauthorized use prohibited. See LiveATC.net Terms of Service


Find LiveATC Audio Streams


Airport/ARTCC Code

Frequency Search
(e.g., 124.400, 128.75)
Site-wide search
 


Browse LiveATC Feeds
LiveATC Coverage Map
Top 50 LiveATC Feeds
Bad Weather Areas

LiveATC FAQ
Offer a LiveATC Feed
Contact LiveATC.net
Press Inquiries

LiveATC on iPhone
LiveATC on Android

Windows Phone
Windows 8/10

LiveATC Mobile
(Mobile browser)

ATC Audio Archives
Interesting Recordings

LiveATC Forums


Home Page
About LiveATC.net
Make a Donation
LiveATC Store

Terms of Use
Privacy Policy

Canadian Air Freqs

AIRMETs/SIGMETs

FAA Airport Status
Nat'l Airspace Status
Arrival Demand Charts


Server Software By:
Icecast.org
Liquidsoap